createdAt,value
2022-12-15T00:00:58.157Z,16.00
2022-12-15T00:04:04.833Z,21.60
2022-12-15T00:07:11.466Z,10.60
2022-12-15T00:10:17.883Z,19.80
2022-12-15T00:13:32.314Z,20.50
2022-12-15T00:16:39.072Z,16.90
2022-12-15T00:19:45.799Z,22.50
2022-12-15T00:22:52.239Z,21.50
2022-12-15T00:25:58.821Z,23.50
2022-12-15T00:29:05.333Z,20.80
2022-12-15T00:32:11.727Z,25.60
2022-12-15T00:35:18.190Z,19.20
2022-12-15T00:38:30.345Z,21.30
2022-12-15T00:41:18.994Z,23.10
2022-12-15T00:44:06.418Z,20.50
2022-12-15T00:46:56.698Z,21.90
2022-12-15T00:50:02.973Z,24.70
2022-12-15T00:53:09.325Z,22.70
2022-12-15T00:56:15.510Z,23.50
2022-12-15T00:59:21.332Z,19.50
2022-12-15T01:02:27.770Z,21.60
2022-12-15T01:05:34.361Z,17.40
2022-12-15T01:08:40.766Z,18.30
2022-12-15T01:11:47.507Z,20.60
2022-12-15T01:14:54.893Z,19.30
2022-12-15T01:18:01.151Z,19.20
2022-12-15T01:21:05.400Z,20.50
2022-12-15T01:23:53.811Z,20.40
2022-12-15T01:26:41.652Z,20.40
2022-12-15T01:29:29.606Z,19.70
2022-12-15T01:32:17.524Z,21.20
2022-12-15T01:35:07.592Z,21.00
2022-12-15T01:37:55.496Z,20.80
2022-12-15T01:40:56.065Z,20.50
2022-12-15T01:43:43.847Z,19.20
2022-12-15T01:46:31.555Z,20.90
2022-12-15T01:49:32.290Z,22.60
2022-12-15T01:52:19.851Z,21.10
2022-12-15T01:55:07.795Z,23.40
2022-12-15T01:58:03.757Z,23.50
2022-12-15T02:00:51.338Z,22.40
2022-12-15T02:03:39.839Z,23.30
2022-12-15T02:06:28.587Z,23.80
2022-12-15T02:09:18.245Z,23.80
2022-12-15T02:12:17.369Z,23.50
2022-12-15T02:15:35.816Z,22.10
2022-12-15T02:18:51.259Z,22.80
2022-12-15T02:21:56.014Z,21.00
2022-12-15T02:25:22.664Z,22.60
2022-12-15T02:28:43.922Z,20.60
2022-12-15T02:31:51.206Z,21.60
2022-12-15T02:34:57.221Z,21.50
2022-12-15T02:37:45.269Z,21.40
2022-12-15T02:40:37.876Z,22.40
2022-12-15T02:43:27.822Z,24.40
2022-12-15T02:46:56.412Z,22.30
2022-12-15T02:50:08.253Z,20.40
2022-12-15T02:53:20.277Z,22.30
2022-12-15T02:56:35.608Z,21.20
2022-12-15T02:59:41.913Z,22.40
2022-12-15T03:02:34.737Z,22.20
2022-12-15T03:05:24.959Z,22.20
2022-12-15T03:08:12.612Z,21.60
2022-12-15T03:11:01.969Z,20.40
2022-12-15T03:13:49.866Z,23.10
2022-12-15T03:16:37.957Z,24.40
2022-12-15T03:19:26.013Z,19.00
2022-12-15T03:22:13.811Z,21.30
2022-12-15T03:25:01.558Z,19.30
2022-12-15T03:27:49.567Z,21.90
2022-12-15T03:30:37.456Z,34.70
2022-12-15T03:33:25.007Z,22.60
2022-12-15T03:36:12.456Z,23.90
2022-12-15T03:39:00.369Z,23.30
2022-12-15T03:41:47.740Z,24.30
2022-12-15T03:44:35.247Z,26.70
2022-12-15T03:47:23.153Z,25.90
2022-12-15T03:50:13.273Z,23.10
2022-12-15T03:53:03.536Z,23.20
2022-12-15T03:55:51.435Z,23.60
2022-12-15T03:58:39.607Z,26.70
2022-12-15T04:01:33.759Z,23.50
2022-12-15T04:04:21.873Z,24.30
2022-12-15T04:07:09.542Z,22.80
2022-12-15T04:09:57.162Z,24.00
2022-12-15T04:12:44.721Z,21.20
2022-12-15T04:15:33.575Z,23.00
2022-12-15T04:18:21.305Z,23.10
2022-12-15T04:21:09.086Z,23.10
2022-12-15T04:24:15.326Z,22.40
2022-12-15T04:27:21.319Z,21.20
2022-12-15T04:30:28.424Z,23.60
2022-12-15T04:33:35.948Z,24.70
2022-12-15T04:36:42.898Z,22.10
2022-12-15T04:39:49.727Z,19.50
2022-12-15T04:43:05.720Z,21.30
2022-12-15T04:46:12.206Z,22.70
2022-12-15T04:49:18.726Z,21.40
2022-12-15T04:52:25.142Z,21.10
2022-12-15T04:55:31.617Z,20.50
2022-12-15T04:58:38.088Z,21.80
2022-12-15T05:01:44.487Z,20.90
2022-12-15T05:04:50.677Z,21.50
2022-12-15T05:07:57.009Z,20.90
2022-12-15T05:11:03.170Z,21.50
2022-12-15T05:14:09.388Z,19.60
2022-12-15T05:17:16.022Z,21.40
2022-12-15T05:20:22.939Z,22.10
2022-12-15T05:23:29.698Z,20.80
2022-12-15T05:26:35.926Z,21.40
2022-12-15T05:29:42.226Z,21.40
2022-12-15T05:32:33.249Z,22.40
2022-12-15T05:35:21.263Z,20.90
2022-12-15T05:38:09.427Z,22.00
2022-12-15T05:40:59.568Z,22.40
2022-12-15T05:43:47.783Z,20.80
2022-12-15T05:46:35.798Z,24.10
2022-12-15T05:49:23.562Z,23.30
2022-12-15T05:52:11.343Z,25.10
2022-12-15T05:54:59.400Z,23.70
2022-12-15T05:57:54.362Z,23.00
2022-12-15T06:00:41.735Z,23.00
2022-12-15T06:03:33.921Z,23.70
2022-12-15T06:06:28.591Z,22.30
2022-12-15T06:09:16.403Z,21.20
2022-12-15T06:12:04.421Z,25.50
2022-12-15T06:14:54.557Z,24.30
2022-12-15T06:17:57.740Z,23.00
2022-12-15T06:20:45.361Z,23.60
2022-12-15T06:23:37.979Z,24.60
2022-12-15T06:26:40.508Z,24.20
2022-12-15T06:29:28.078Z,21.60
2022-12-15T06:32:15.880Z,20.70
2022-12-15T06:35:03.759Z,19.90
2022-12-15T06:37:51.355Z,20.20
2022-12-15T06:40:39.644Z,21.10
2022-12-15T06:43:29.084Z,21.80
2022-12-15T06:46:17.297Z,22.60
2022-12-15T06:49:05.548Z,23.50
2022-12-15T06:51:53.344Z,23.50
2022-12-15T06:54:40.911Z,23.00
2022-12-15T06:57:28.672Z,23.50
2022-12-15T07:00:16.870Z,24.80
2022-12-15T07:03:10.294Z,26.00
2022-12-15T07:06:09.521Z,23.30
2022-12-15T07:08:57.157Z,24.20
2022-12-15T07:11:46.483Z,26.50
2022-12-15T07:14:34.090Z,30.50
2022-12-15T07:17:21.660Z,27.90
2022-12-15T07:20:11.078Z,28.20
2022-12-15T07:22:58.971Z,28.10
2022-12-15T07:25:46.775Z,28.80
2022-12-15T07:28:38.307Z,26.50
2022-12-15T07:31:25.954Z,28.30
2022-12-15T07:34:13.956Z,27.20
2022-12-15T07:37:01.916Z,27.60
2022-12-15T07:39:49.880Z,26.20
2022-12-15T07:42:37.404Z,26.70
2022-12-15T07:45:26.384Z,27.30
2022-12-15T07:48:14.178Z,25.30
2022-12-15T07:51:17.152Z,25.50
2022-12-15T07:54:07.732Z,28.40
2022-12-15T07:56:55.764Z,29.90
2022-12-15T07:59:43.642Z,26.50
2022-12-15T08:02:32.322Z,30.90
2022-12-15T08:05:20.104Z,27.80
2022-12-15T08:08:13.713Z,31.20
2022-12-15T08:11:13.607Z,31.20
2022-12-15T08:14:03.023Z,36.40
2022-12-15T08:16:51.999Z,33.90
2022-12-15T08:19:39.469Z,33.70
2022-12-15T08:22:27.143Z,37.60
2022-12-15T08:25:14.853Z,38.60
2022-12-15T08:28:02.404Z,40.10
2022-12-15T08:30:49.985Z,47.20
2022-12-15T08:33:38.991Z,43.60
2022-12-15T08:36:26.563Z,39.40
2022-12-15T08:39:14.295Z,36.20
2022-12-15T08:42:01.656Z,39.30
2022-12-15T08:44:50.366Z,35.30
2022-12-15T08:47:38.731Z,36.00
2022-12-15T08:50:26.233Z,36.20
2022-12-15T08:53:30.819Z,36.40
2022-12-15T08:56:21.704Z,38.30
2022-12-15T08:59:09.876Z,39.90
2022-12-15T09:01:59.482Z,42.50
2022-12-15T09:04:47.440Z,42.40
2022-12-15T09:07:35.589Z,44.30
2022-12-15T09:10:24.134Z,45.60
2022-12-15T09:13:11.568Z,43.70
2022-12-15T09:16:10.216Z,40.50
2022-12-15T09:19:03.436Z,44.90
2022-12-15T09:21:51.005Z,44.80
2022-12-15T09:24:38.804Z,45.30
2022-12-15T09:27:26.164Z,46.20
2022-12-15T09:30:14.432Z,45.90
2022-12-15T09:33:01.998Z,48.00
2022-12-15T09:35:51.725Z,48.30
2022-12-15T09:38:41.658Z,47.20
2022-12-15T09:41:35.529Z,43.80
2022-12-15T09:44:25.715Z,48.50
2022-12-15T09:47:30.395Z,44.50
2022-12-15T09:50:26.209Z,46.30
2022-12-15T09:53:53.070Z,49.80
2022-12-15T09:56:40.739Z,45.90
2022-12-15T09:59:47.292Z,42.60
2022-12-15T10:03:23.089Z,37.30
2022-12-15T10:06:32.958Z,32.90
2022-12-15T10:09:29.079Z,37.00
2022-12-15T10:12:27.123Z,33.30
2022-12-15T10:15:30.812Z,37.30
2022-12-15T10:18:26.709Z,34.20
2022-12-15T10:21:14.802Z,34.80
2022-12-15T10:25:08.122Z,34.10
2022-12-15T10:28:19.089Z,35.20
2022-12-15T10:31:18.910Z,34.90
2022-12-15T10:34:24.101Z,34.20
2022-12-15T10:37:21.143Z,35.70
2022-12-15T10:40:14.792Z,40.20
2022-12-15T10:43:14.438Z,36.80
2022-12-15T10:46:22.111Z,38.20
2022-12-15T10:49:09.892Z,33.60
2022-12-15T10:52:01.194Z,33.00
2022-12-15T10:54:52.731Z,34.70
2022-12-15T10:57:58.451Z,33.40
2022-12-15T11:00:46.604Z,32.10
2022-12-15T11:03:39.969Z,30.20
2022-12-15T11:06:34.018Z,31.00
2022-12-15T11:09:36.701Z,32.00
2022-12-15T11:12:50.624Z,31.20
2022-12-15T11:15:51.753Z,30.00
2022-12-15T11:18:53.903Z,29.60
2022-12-15T11:21:52.003Z,32.20
2022-12-15T11:24:50.964Z,28.80
2022-12-15T11:27:44.113Z,28.60
2022-12-15T11:30:42.543Z,26.50
2022-12-15T11:33:30.465Z,23.40
2022-12-15T11:36:36.922Z,23.70
2022-12-15T11:39:55.391Z,23.20
2022-12-15T11:43:18.856Z,22.70
2022-12-15T11:46:43.040Z,19.90
2022-12-15T11:50:06.306Z,23.20
2022-12-15T11:53:40.512Z,20.00
2022-12-15T11:56:39.456Z,21.70
2022-12-15T11:59:57.492Z,19.50
2022-12-15T12:03:23.096Z,19.90
2022-12-15T12:06:16.952Z,21.00
2022-12-15T12:09:30.120Z,19.60
2022-12-15T12:12:40.228Z,20.20
2022-12-15T12:15:55.710Z,21.20
2022-12-15T12:19:06.103Z,21.70
2022-12-15T12:22:03.738Z,19.40
2022-12-15T12:24:57.642Z,18.70
2022-12-15T12:28:14.312Z,19.10
2022-12-15T12:31:03.767Z,19.40
2022-12-15T12:33:55.851Z,18.90
2022-12-15T12:36:45.212Z,20.30
2022-12-15T12:39:37.676Z,16.90
2022-12-15T12:42:40.592Z,17.20
2022-12-15T12:45:33.756Z,18.10
2022-12-15T12:48:58.476Z,16.90
2022-12-15T12:51:53.756Z,20.60
2022-12-15T12:54:44.758Z,18.20
2022-12-15T12:57:37.704Z,17.40
2022-12-15T13:00:31.311Z,17.80
2022-12-15T13:03:21.645Z,19.10
2022-12-15T13:06:34.324Z,16.40
2022-12-15T13:09:25.340Z,16.60
2022-12-15T13:12:55.245Z,20.80
2022-12-15T13:15:50.819Z,17.30
2022-12-15T13:19:56.525Z,17.10
2022-12-15T13:22:44.491Z,12.90
2022-12-15T13:25:41.857Z,14.10
2022-12-15T13:28:44.492Z,17.70
2022-12-15T13:31:43.207Z,15.60
2022-12-15T13:34:40.977Z,16.00
2022-12-15T13:37:50.908Z,13.20
2022-12-15T13:40:38.582Z,12.50
2022-12-15T13:43:29.670Z,14.20
2022-12-15T13:46:25.083Z,17.90
2022-12-15T13:49:21.400Z,19.20
2022-12-15T13:53:19.080Z,15.70
2022-12-15T13:56:10.800Z,15.40
2022-12-15T13:59:07.549Z,17.70
2022-12-15T14:01:55.307Z,13.40
2022-12-15T14:04:42.951Z,18.70
2022-12-15T14:07:30.451Z,17.10
2022-12-15T14:10:42.532Z,14.30
2022-12-15T14:13:35.574Z,17.90
2022-12-15T14:16:35.418Z,18.20
2022-12-15T14:19:23.697Z,12.40
2022-12-15T14:22:28.122Z,15.60
2022-12-15T14:25:29.455Z,17.40
2022-12-15T14:28:34.020Z,19.50
2022-12-15T14:31:24.367Z,17.50
2022-12-15T14:34:25.169Z,17.40
2022-12-15T14:37:20.224Z,15.10
2022-12-15T14:40:17.032Z,19.50
2022-12-15T14:43:11.752Z,18.10
2022-12-15T14:46:16.701Z,16.40
2022-12-15T14:49:09.111Z,19.10
2022-12-15T14:52:05.227Z,20.40
2022-12-15T14:54:57.708Z,14.60
2022-12-15T14:57:46.947Z,19.00
2022-12-15T15:00:48.775Z,20.10
2022-12-15T15:03:40.882Z,15.00
2022-12-15T15:06:57.140Z,23.70
2022-12-15T15:09:46.686Z,19.00
2022-12-15T15:13:00.562Z,21.70
2022-12-15T15:16:00.966Z,18.50
2022-12-15T15:18:56.148Z,22.40
2022-12-15T15:21:46.287Z,25.40
2022-12-15T15:24:39.773Z,24.70
2022-12-15T15:27:40.042Z,21.60
2022-12-15T15:30:27.528Z,25.00
2022-12-15T15:33:16.033Z,22.20
2022-12-15T15:36:10.865Z,25.00
2022-12-15T15:38:59.446Z,20.40
2022-12-15T15:41:47.275Z,18.70
2022-12-15T15:44:35.532Z,21.90
2022-12-15T15:47:27.381Z,30.30
2022-12-15T15:50:21.427Z,19.90
2022-12-15T15:53:18.731Z,24.20
2022-12-15T15:56:10.595Z,14.80
2022-12-15T15:59:09.480Z,21.00
2022-12-15T16:01:59.281Z,25.30
2022-12-15T16:04:46.979Z,20.40
2022-12-15T16:07:34.909Z,22.70
2022-12-15T16:10:22.766Z,25.80
2022-12-15T16:13:11.429Z,27.30
2022-12-15T16:15:59.266Z,23.90
2022-12-15T16:18:47.230Z,27.40
2022-12-15T16:21:36.234Z,22.40
2022-12-15T16:24:23.938Z,26.50
2022-12-15T16:27:13.443Z,28.00
2022-12-15T16:30:01.486Z,30.60
2022-12-15T16:32:50.615Z,30.90
2022-12-15T16:35:39.688Z,28.00
2022-12-15T16:38:32.689Z,25.40
2022-12-15T16:41:23.355Z,25.90
2022-12-15T16:44:12.581Z,27.20
2022-12-15T16:47:00.211Z,25.00
2022-12-15T16:49:47.884Z,25.50
2022-12-15T16:52:35.630Z,26.90
2022-12-15T16:55:38.126Z,24.00
2022-12-15T16:58:30.552Z,21.30
2022-12-15T17:01:18.774Z,23.90
2022-12-15T17:04:07.159Z,23.30
2022-12-15T17:06:55.165Z,25.60
2022-12-15T17:09:43.143Z,24.50
2022-12-15T17:12:31.808Z,22.00
2022-12-15T17:15:26.373Z,25.50
2022-12-15T17:18:15.028Z,18.20
2022-12-15T17:21:18.756Z,21.70
2022-12-15T17:24:13.966Z,15.60
2022-12-15T17:27:02.486Z,26.10
2022-12-15T17:29:50.342Z,23.40
2022-12-15T17:32:38.197Z,25.40
2022-12-15T17:35:25.783Z,25.10
2022-12-15T17:38:19.757Z,19.40
2022-12-15T17:41:35.132Z,17.00
2022-12-15T17:44:32.988Z,22.80
2022-12-15T17:47:24.250Z,18.00
2022-12-15T17:50:13.231Z,19.70
2022-12-15T17:53:03.467Z,26.00
2022-12-15T17:55:53.527Z,19.80
2022-12-15T17:58:42.482Z,17.60
2022-12-15T18:01:30.049Z,25.30
2022-12-15T18:04:17.858Z,25.80
2022-12-15T18:07:05.505Z,24.50
2022-12-15T18:09:53.674Z,25.20
2022-12-15T18:12:41.520Z,23.40
2022-12-15T18:15:32.592Z,25.20
2022-12-15T18:18:22.867Z,25.80
2022-12-15T18:21:17.022Z,19.80
2022-12-15T18:24:17.539Z,25.10
2022-12-15T18:27:33.681Z,22.30
2022-12-15T18:30:27.090Z,24.90
2022-12-15T18:33:15.468Z,22.70
2022-12-15T18:36:03.003Z,22.40
2022-12-15T18:38:51.267Z,25.90
2022-12-15T18:41:39.563Z,24.60
2022-12-15T18:44:31.827Z,26.10
2022-12-15T18:47:23.299Z,24.90
2022-12-15T18:50:25.764Z,17.90
2022-12-15T18:53:21.512Z,24.30
2022-12-15T18:56:14.512Z,24.90
2022-12-15T18:59:02.165Z,22.00
2022-12-15T19:01:50.876Z,22.30
2022-12-15T19:04:39.166Z,17.60
2022-12-15T19:07:27.716Z,18.80
2022-12-15T19:10:15.587Z,21.10
2022-12-15T19:13:03.974Z,24.10
2022-12-15T19:15:53.489Z,18.80
2022-12-15T19:18:59.827Z,20.60
2022-12-15T19:22:07.118Z,19.30
2022-12-15T19:24:54.973Z,19.50
2022-12-15T19:27:42.599Z,23.50
2022-12-15T19:30:41.642Z,19.70
2022-12-15T19:33:30.347Z,23.10
2022-12-15T19:36:24.329Z,24.40
2022-12-15T19:39:23.486Z,23.30
2022-12-15T19:42:24.081Z,23.40
2022-12-15T19:45:27.787Z,19.70
2022-12-15T19:48:21.625Z,18.60
2022-12-15T19:51:24.275Z,20.60
2022-12-15T19:54:19.535Z,21.70
2022-12-15T19:57:14.704Z,22.50
2022-12-15T20:00:06.559Z,24.10
2022-12-15T20:02:59.935Z,17.00
2022-12-15T20:05:52.121Z,20.00
2022-12-15T20:08:42.740Z,21.20
2022-12-15T20:11:33.194Z,22.10
2022-12-15T20:14:21.644Z,25.60
2022-12-15T20:17:09.357Z,22.70
2022-12-15T20:19:57.354Z,18.80
2022-12-15T20:22:47.399Z,22.40
2022-12-15T20:25:38.003Z,23.10
2022-12-15T20:28:29.459Z,20.10
2022-12-15T20:31:22.036Z,20.50
2022-12-15T20:34:10.369Z,21.70
2022-12-15T20:36:58.450Z,19.50
2022-12-15T20:39:48.038Z,21.10
2022-12-15T20:42:38.720Z,19.60
2022-12-15T20:45:30.542Z,16.50
2022-12-15T20:48:19.904Z,23.70
2022-12-15T20:51:31.758Z,19.30
2022-12-15T20:54:22.108Z,21.00
2022-12-15T20:57:09.995Z,19.70
2022-12-15T20:59:59.138Z,19.30
2022-12-15T21:02:51.816Z,22.40
2022-12-15T21:05:42.015Z,20.90
2022-12-15T21:08:32.374Z,24.80
2022-12-15T21:11:37.259Z,22.40
2022-12-15T21:14:26.639Z,25.10
2022-12-15T21:17:21.138Z,21.50
2022-12-15T21:20:10.441Z,19.60
2022-12-15T21:22:58.372Z,21.30
2022-12-15T21:25:46.114Z,22.00
2022-12-15T21:28:34.275Z,22.80
2022-12-15T21:31:23.671Z,20.00
2022-12-15T21:34:11.770Z,20.30
2022-12-15T21:36:59.919Z,20.50
2022-12-15T21:39:47.669Z,17.10
2022-12-15T21:42:36.641Z,16.90
2022-12-15T21:45:26.275Z,15.60
2022-12-15T21:48:32.803Z,17.50
2022-12-15T21:51:25.198Z,15.20
2022-12-15T21:54:28.805Z,18.80
2022-12-15T21:57:18.996Z,18.70
2022-12-15T22:00:14.663Z,18.60
2022-12-15T22:03:02.301Z,17.40
2022-12-15T22:05:50.298Z,16.00
2022-12-15T22:08:38.205Z,14.20
2022-12-15T22:11:28.496Z,17.40
2022-12-15T22:14:29.732Z,17.50
2022-12-15T22:17:21.709Z,19.90
2022-12-15T22:20:21.903Z,14.70
2022-12-15T22:23:09.349Z,12.10
2022-12-15T22:25:57.133Z,16.90
2022-12-15T22:28:44.999Z,13.70
2022-12-15T22:31:32.474Z,17.30
2022-12-15T22:34:23.699Z,14.10
2022-12-15T22:37:11.409Z,12.80
2022-12-15T22:39:59.187Z,15.50
2022-12-15T22:42:54.879Z,14.30
2022-12-15T22:45:43.246Z,15.30
2022-12-15T22:48:37.061Z,11.10
2022-12-15T22:51:25.257Z,13.10
2022-12-15T22:54:22.928Z,17.90
2022-12-15T22:57:22.256Z,19.00
2022-12-15T23:00:11.727Z,19.20
2022-12-15T23:02:59.812Z,19.00
2022-12-15T23:05:47.770Z,14.50
2022-12-15T23:08:35.468Z,13.90
2022-12-15T23:11:39.674Z,16.40
2022-12-15T23:15:06.408Z,15.70
2022-12-15T23:17:53.934Z,17.30
2022-12-15T23:20:43.033Z,17.20
2022-12-15T23:23:32.846Z,16.40
2022-12-15T23:26:26.132Z,16.80
2022-12-15T23:29:14.366Z,17.60
2022-12-15T23:32:01.788Z,16.40
2022-12-15T23:34:49.655Z,17.50
2022-12-15T23:37:37.290Z,18.50
2022-12-15T23:40:25.039Z,16.50
2022-12-15T23:43:12.982Z,15.10
2022-12-15T23:46:05.468Z,12.30
2022-12-15T23:48:53.282Z,13.40
2022-12-15T23:51:42.746Z,19.40
2022-12-15T23:54:30.529Z,20.90
2022-12-15T23:57:18.539Z,15.60
